Terminal Aerodrome Forecast
Issued by NWS

Home | Current Version | Previous Version | Text Only | Print | Product List | Glossary On
Versions: 1 2 3 4 5 6 7 8 9 10 11 12 13
000
FTUS45 KABQ 291100
TAFLVS
TAF
KLVS 291121Z 2912/3012 30005KT P6SM SCT090
     FM292000 21010G20KT P6SM SKC
     FM300100 18010KT P6SM SKC=

USA.gov is the U.S. government's official web portal to all federal, state and local government web resources and services.